createdAt,value
2024-03-02T00:00:56.397Z,58.27
2024-03-02T00:03:25.441Z,57.76
2024-03-02T00:05:52.242Z,57.52
2024-03-02T00:08:18.750Z,57.35
2024-03-02T00:10:45.263Z,57.55
2024-03-02T00:13:12.443Z,57.20
2024-03-02T00:15:39.522Z,56.98
2024-03-02T00:18:06.101Z,56.95
2024-03-02T00:20:32.735Z,56.91
2024-03-02T00:22:59.493Z,56.77
2024-03-02T00:25:27.188Z,56.00
2024-03-02T00:27:53.804Z,56.78
2024-03-02T00:30:21.652Z,56.19
2024-03-02T00:32:48.863Z,57.03
2024-03-02T00:35:16.182Z,56.99
2024-03-02T00:37:43.935Z,57.68
2024-03-02T00:40:10.653Z,57.86
2024-03-02T00:42:37.323Z,57.98
2024-03-02T00:45:04.919Z,57.21
2024-03-02T00:47:31.598Z,57.60
2024-03-02T00:49:58.054Z,57.27
2024-03-02T00:52:24.713Z,57.29
2024-03-02T00:54:51.371Z,57.58
2024-03-02T00:57:19.049Z,57.32
2024-03-02T00:59:48.001Z,57.00
2024-03-02T01:02:15.228Z,56.81
2024-03-02T01:04:41.989Z,57.10
2024-03-02T01:07:09.127Z,56.88
2024-03-02T01:09:36.030Z,56.76
2024-03-02T01:12:02.531Z,56.94
2024-03-02T01:14:29.372Z,56.71
2024-03-02T01:16:58.609Z,56.74
2024-03-02T01:19:26.766Z,56.85
2024-03-02T01:21:53.582Z,56.95
2024-03-02T01:24:20.525Z,57.17
2024-03-02T01:26:47.125Z,57.79
2024-03-02T01:29:13.985Z,57.48
2024-03-02T01:31:40.977Z,56.89
2024-03-02T01:34:07.654Z,56.51
2024-03-02T01:36:34.271Z,56.53
2024-03-02T01:39:00.974Z,56.61
2024-03-02T01:41:27.401Z,56.07
2024-03-02T01:43:54.335Z,56.00
2024-03-02T01:46:20.882Z,56.22
2024-03-02T01:48:47.424Z,55.99
2024-03-02T01:51:14.546Z,55.89
2024-03-02T01:53:41.233Z,55.89
2024-03-02T01:56:07.966Z,55.79
2024-03-02T01:58:35.714Z,55.78
2024-03-02T02:01:02.524Z,55.84
2024-03-02T02:03:29.145Z,55.39
2024-03-02T02:05:56.209Z,55.75
2024-03-02T02:08:22.749Z,55.63
2024-03-02T02:10:49.309Z,55.14
2024-03-02T02:13:15.717Z,55.66
2024-03-02T02:15:42.482Z,55.83
2024-03-02T02:18:09.170Z,55.14
2024-03-02T02:20:35.859Z,56.13
2024-03-02T02:23:02.533Z,55.63
2024-03-02T02:25:29.227Z,56.09
2024-03-02T02:27:55.920Z,55.39
2024-03-02T02:30:22.534Z,56.16
2024-03-02T02:32:49.291Z,56.02
2024-03-02T02:35:16.241Z,55.86
2024-03-02T02:37:43.034Z,55.62
2024-03-02T02:40:09.554Z,55.94
2024-03-02T02:42:37.196Z,56.19
2024-03-02T02:45:04.272Z,55.99
2024-03-02T02:47:31.951Z,55.99
2024-03-02T02:49:58.583Z,55.95
2024-03-02T02:52:25.123Z,56.12
2024-03-02T02:54:53.104Z,56.00
2024-03-02T02:57:19.915Z,56.01
2024-03-02T02:59:46.473Z,55.79
2024-03-02T03:02:15.983Z,56.26
2024-03-02T03:04:44.395Z,56.16
2024-03-02T03:07:11.089Z,56.03
2024-03-02T03:09:37.972Z,55.87
2024-03-02T03:12:07.883Z,55.74
2024-03-02T03:14:37.510Z,55.67
2024-03-02T03:17:04.124Z,55.83
2024-03-02T03:19:31.158Z,55.71
2024-03-02T03:21:58.519Z,55.91
2024-03-02T03:24:25.528Z,56.05
2024-03-02T03:26:55.292Z,55.93
2024-03-02T03:29:21.801Z,55.97
2024-03-02T03:31:48.392Z,55.91
2024-03-02T03:34:14.969Z,55.62
2024-03-02T03:36:41.656Z,55.95
2024-03-02T03:39:08.214Z,55.35
2024-03-02T03:41:34.623Z,55.92
2024-03-02T03:44:01.420Z,56.04
2024-03-02T03:46:28.438Z,55.69
2024-03-02T03:48:55.699Z,55.47
2024-03-02T03:51:22.270Z,56.14
2024-03-02T03:53:48.812Z,56.29
2024-03-02T03:56:16.406Z,56.20
2024-03-02T03:58:43.116Z,56.03
2024-03-02T04:01:09.769Z,55.68
2024-03-02T04:03:36.574Z,55.52
2024-03-02T04:06:04.312Z,55.73
2024-03-02T04:08:31.466Z,55.65
2024-03-02T04:10:58.175Z,55.81
2024-03-02T04:13:25.421Z,56.25
2024-03-02T04:15:51.932Z,56.08
2024-03-02T04:18:18.448Z,55.69
2024-03-02T04:20:45.259Z,56.00
2024-03-02T04:23:11.825Z,55.45
2024-03-02T04:25:38.323Z,55.78
2024-03-02T04:28:06.412Z,55.76
2024-03-02T04:30:33.006Z,55.94
2024-03-02T04:32:59.574Z,55.87
2024-03-02T04:35:26.937Z,55.98
2024-03-02T04:37:53.605Z,56.01
2024-03-02T04:40:20.098Z,56.12
2024-03-02T04:42:46.946Z,55.84
2024-03-02T04:45:13.592Z,56.04
2024-03-02T04:47:40.130Z,56.29
2024-03-02T04:50:07.417Z,56.13
2024-03-02T04:52:33.918Z,55.83
2024-03-02T04:55:00.469Z,55.60
2024-03-02T04:57:27.395Z,55.69
2024-03-02T04:59:54.033Z,56.24
2024-03-02T05:02:20.848Z,56.05
2024-03-02T05:04:47.436Z,56.02
2024-03-02T05:07:13.979Z,55.97
2024-03-02T05:09:40.464Z,55.75
2024-03-02T05:12:06.952Z,56.01
2024-03-02T05:14:33.587Z,55.96
2024-03-02T05:17:00.316Z,55.71
2024-03-02T05:19:26.766Z,55.88
2024-03-02T05:21:53.360Z,55.61
2024-03-02T05:24:20.179Z,55.45
2024-03-02T05:32:28.044Z,55.92
2024-03-02T05:34:56.925Z,55.79
2024-03-02T05:37:23.568Z,55.87
2024-03-02T05:39:50.241Z,56.25
2024-03-02T05:42:16.923Z,56.11
2024-03-02T05:44:45.605Z,56.76
2024-03-02T05:47:12.412Z,56.69
2024-03-02T05:49:39.654Z,56.89
2024-03-02T05:52:06.425Z,57.07
2024-03-02T05:54:37.869Z,56.96
2024-03-02T05:57:04.467Z,57.71
2024-03-02T05:59:31.009Z,57.37
2024-03-02T06:01:57.583Z,57.43
2024-03-02T06:04:24.213Z,58.29
2024-03-02T06:06:51.825Z,58.24
2024-03-02T06:09:19.472Z,58.04
2024-03-02T06:11:46.269Z,58.36
2024-03-02T06:14:12.746Z,58.43
2024-03-02T06:16:39.350Z,58.71
2024-03-02T06:19:07.030Z,59.32
2024-03-02T06:21:33.781Z,59.67
2024-03-02T06:24:00.291Z,59.48
2024-03-02T06:26:26.857Z,60.20
2024-03-02T06:28:53.633Z,60.08
2024-03-02T06:31:20.450Z,59.50
2024-03-02T06:33:47.172Z,59.70
2024-03-02T06:36:16.115Z,60.89
2024-03-02T06:38:43.724Z,60.39
2024-03-02T06:41:10.433Z,60.09
2024-03-02T06:43:36.945Z,60.87
2024-03-02T06:46:03.556Z,60.93
2024-03-02T06:48:31.045Z,60.45
2024-03-02T06:50:58.353Z,60.60
2024-03-02T06:53:24.858Z,59.99
2024-03-02T06:55:51.267Z,59.98
2024-03-02T06:58:17.679Z,60.22
2024-03-02T07:00:46.766Z,60.02
2024-03-02T07:03:13.833Z,59.68
2024-03-02T07:05:40.454Z,59.53
2024-03-02T07:08:07.081Z,59.55
2024-03-02T07:10:34.058Z,59.85
2024-03-02T07:13:00.909Z,59.47
2024-03-02T07:15:27.637Z,59.91
2024-03-02T07:17:54.202Z,59.44
2024-03-02T07:20:23.278Z,59.94
2024-03-02T07:22:50.306Z,60.08
2024-03-02T07:27:46.745Z,60.15
2024-03-02T07:30:13.610Z,59.83
2024-03-02T07:32:41.472Z,60.06
2024-03-02T07:35:08.081Z,60.06
2024-03-02T07:37:35.016Z,60.04
2024-03-02T07:40:01.758Z,60.95
2024-03-02T07:42:30.772Z,61.91
2024-03-02T07:44:57.337Z,61.56
2024-03-02T07:47:24.653Z,60.66
2024-03-02T07:49:51.596Z,60.69
2024-03-02T07:52:18.083Z,60.80
2024-03-02T07:54:45.530Z,61.31
2024-03-02T07:57:11.948Z,60.77
2024-03-02T07:59:39.547Z,61.83
2024-03-02T08:02:06.455Z,60.78
2024-03-02T08:04:33.257Z,60.34
2024-03-02T08:06:59.949Z,60.58
2024-03-02T08:09:27.631Z,61.40
2024-03-02T08:11:54.735Z,61.57
2024-03-02T08:14:21.557Z,62.02
2024-03-02T08:16:48.245Z,61.43
2024-03-02T08:19:15.338Z,61.61
2024-03-02T08:21:42.230Z,62.22
2024-03-02T08:24:09.098Z,61.54
2024-03-02T08:26:36.828Z,61.17
2024-03-02T08:29:03.547Z,60.92
2024-03-02T08:34:10.850Z,62.28
2024-03-02T08:36:37.760Z,61.40
2024-03-02T08:39:04.890Z,60.96
2024-03-02T08:41:31.902Z,61.30
2024-03-02T08:43:59.117Z,61.68
2024-03-02T08:46:25.915Z,62.38
2024-03-02T08:48:52.365Z,62.08
2024-03-02T08:51:21.150Z,61.48
2024-03-02T08:53:48.027Z,62.01
2024-03-02T08:56:14.674Z,62.33
2024-03-02T08:58:41.354Z,62.09
2024-03-02T09:01:08.016Z,62.41
2024-03-02T09:03:34.931Z,61.79
2024-03-02T09:06:02.320Z,61.51
2024-03-02T09:08:28.966Z,61.10
2024-03-02T09:10:56.565Z,60.80
2024-03-02T09:13:23.001Z,60.49
2024-03-02T09:15:49.566Z,61.47
2024-03-02T09:18:16.054Z,61.60
2024-03-02T09:20:42.656Z,61.54
2024-03-02T09:23:12.140Z,61.24
2024-03-02T09:25:39.880Z,60.79
2024-03-02T09:28:06.478Z,60.73
2024-03-02T09:30:33.667Z,60.92
2024-03-02T09:35:33.985Z,60.75
2024-03-02T09:38:01.100Z,60.65
2024-03-02T09:40:27.625Z,60.40
2024-03-02T09:42:54.667Z,60.29
2024-03-02T09:45:23.878Z,60.45
2024-03-02T09:47:50.499Z,60.45
2024-03-02T09:50:17.912Z,60.58
2024-03-02T09:52:45.390Z,60.66
2024-03-02T09:55:14.512Z,60.17
2024-03-02T09:57:43.666Z,60.24
2024-03-02T10:00:10.566Z,59.72
2024-03-02T10:02:37.417Z,59.87
2024-03-02T10:05:07.888Z,59.78
2024-03-02T10:07:35.340Z,59.57
2024-03-02T10:10:02.135Z,60.19
2024-03-02T10:12:30.165Z,61.55
2024-03-02T10:14:57.269Z,60.78
2024-03-02T10:17:25.873Z,60.74
2024-03-02T10:19:53.332Z,61.31
2024-03-02T10:22:24.088Z,60.43
2024-03-02T10:24:59.544Z,59.98
2024-03-02T10:27:27.014Z,60.03
2024-03-02T10:29:53.881Z,59.98
2024-03-02T10:32:20.438Z,59.97
2024-03-02T10:34:46.883Z,60.21
2024-03-02T10:37:13.821Z,60.75
2024-03-02T10:39:41.532Z,61.55
2024-03-02T10:42:08.334Z,61.11
2024-03-02T10:44:35.317Z,60.70
2024-03-02T10:47:01.860Z,61.08
2024-03-02T10:49:28.542Z,60.61
2024-03-02T10:51:56.806Z,61.16
2024-03-02T10:54:30.075Z,61.87
2024-03-02T10:56:57.071Z,61.37
2024-03-02T10:59:23.609Z,61.15
2024-03-02T11:01:50.239Z,61.18
2024-03-02T11:04:17.907Z,61.13
2024-03-02T11:06:44.482Z,61.48
2024-03-02T11:09:11.563Z,61.42
2024-03-02T11:11:38.164Z,62.12
2024-03-02T11:14:04.608Z,61.97
2024-03-02T11:16:31.133Z,62.18
2024-03-02T11:18:59.924Z,62.37
2024-03-02T11:21:26.779Z,62.40
2024-03-02T11:23:54.566Z,61.96
2024-03-02T11:26:21.097Z,62.41
2024-03-02T11:28:47.568Z,62.49
2024-03-02T11:31:14.395Z,63.10
2024-03-02T11:33:40.990Z,62.77
2024-03-02T11:36:09.007Z,62.29
2024-03-02T11:38:37.143Z,62.02
2024-03-02T11:41:06.190Z,62.11
2024-03-02T11:43:32.720Z,62.07
2024-03-02T11:45:59.705Z,61.63
2024-03-02T11:48:28.889Z,62.04
2024-03-02T11:50:55.500Z,62.94
2024-03-02T11:53:24.194Z,62.49
2024-03-02T11:55:53.150Z,62.97
2024-03-02T11:58:19.818Z,62.40
2024-03-02T12:00:46.609Z,62.64
2024-03-02T12:03:13.167Z,61.67
2024-03-02T12:05:40.524Z,62.48
2024-03-02T12:08:08.168Z,62.16
2024-03-02T12:10:35.247Z,62.16
2024-03-02T12:13:02.202Z,61.72
2024-03-02T12:15:28.779Z,62.83
2024-03-02T12:17:55.393Z,62.90
2024-03-02T12:20:22.398Z,62.86
2024-03-02T12:22:50.014Z,61.68
2024-03-02T12:25:16.706Z,61.45
2024-03-02T12:27:44.277Z,61.14
2024-03-02T12:30:10.741Z,61.18
2024-03-02T12:32:37.673Z,60.97
2024-03-02T12:35:04.074Z,61.06
2024-03-02T12:37:30.653Z,61.19
2024-03-02T12:39:57.262Z,61.20
2024-03-02T12:42:23.864Z,62.19
2024-03-02T12:44:50.370Z,62.19
2024-03-02T12:47:17.030Z,62.70
2024-03-02T12:49:43.557Z,63.33
2024-03-02T12:52:10.321Z,63.07
2024-03-02T12:54:37.404Z,62.40
2024-03-02T12:57:03.945Z,61.54
2024-03-02T12:59:30.479Z,61.03
2024-03-02T13:01:57.158Z,60.68
2024-03-02T13:04:24.688Z,60.25
2024-03-02T13:06:51.287Z,60.40
2024-03-02T13:09:18.179Z,60.13
2024-03-02T13:11:44.726Z,62.22
2024-03-02T13:14:11.271Z,62.63
2024-03-02T13:16:44.453Z,61.87
2024-03-02T13:19:14.697Z,61.69
2024-03-02T13:21:41.625Z,60.81
2024-03-02T13:24:08.226Z,59.95
2024-03-02T13:26:35.103Z,60.54
2024-03-02T13:29:02.268Z,59.96
2024-03-02T13:31:28.728Z,60.71
2024-03-02T13:33:56.067Z,60.07
2024-03-02T13:36:22.832Z,59.71
2024-03-02T13:38:49.494Z,59.43
2024-03-02T13:41:16.136Z,59.22
2024-03-02T13:43:43.356Z,59.47
2024-03-02T13:46:09.950Z,60.13
2024-03-02T13:48:37.453Z,59.68
2024-03-02T13:51:04.217Z,59.08
2024-03-02T13:53:30.706Z,58.78
2024-03-02T13:55:58.072Z,58.81
2024-03-02T13:58:24.497Z,58.23
2024-03-02T14:00:52.550Z,58.22
2024-03-02T14:03:19.249Z,59.02
2024-03-02T14:05:46.211Z,58.62
2024-03-02T14:08:13.544Z,58.86
2024-03-02T14:10:40.009Z,58.76
2024-03-02T14:13:06.840Z,58.87
2024-03-02T14:15:33.938Z,58.92
2024-03-02T14:18:00.768Z,58.90
2024-03-02T14:20:27.682Z,58.61
2024-03-02T14:22:55.094Z,59.51
2024-03-02T14:25:21.614Z,59.71
2024-03-02T14:28:08.431Z,60.06
2024-03-02T14:30:38.719Z,61.46
2024-03-02T14:33:05.216Z,61.09
2024-03-02T14:35:34.174Z,60.27
2024-03-02T14:38:01.783Z,61.96
2024-03-02T14:40:28.271Z,63.04
2024-03-02T14:42:59.141Z,61.08
2024-03-02T14:45:26.308Z,58.36
2024-03-02T14:47:52.915Z,57.85
2024-03-02T14:50:19.892Z,58.24
2024-03-02T14:52:46.897Z,57.93
2024-03-02T14:55:14.081Z,58.39
2024-03-02T14:57:40.652Z,58.24
2024-03-02T15:00:12.101Z,58.27
2024-03-02T15:02:38.815Z,58.64
2024-03-02T15:05:06.435Z,58.84
2024-03-02T15:07:33.140Z,59.56
2024-03-02T15:09:59.703Z,60.57
2024-03-02T15:12:26.220Z,60.43
2024-03-02T15:14:53.083Z,59.72
2024-03-02T15:17:19.787Z,60.06
2024-03-02T15:19:46.588Z,61.88
2024-03-02T15:22:14.402Z,62.00
2024-03-02T15:24:41.403Z,62.29
2024-03-02T15:27:07.873Z,61.74
2024-03-02T15:29:34.486Z,61.90
2024-03-02T15:32:00.941Z,61.82
2024-03-02T15:34:27.652Z,61.76
2024-03-02T15:36:54.396Z,61.52
2024-03-02T15:39:21.281Z,61.97
2024-03-02T15:41:49.816Z,62.24
2024-03-02T15:44:19.808Z,62.51
2024-03-02T15:46:46.583Z,61.88
2024-03-02T15:49:13.364Z,61.37
2024-03-02T15:51:39.901Z,61.76
2024-03-02T15:54:06.503Z,62.49
2024-03-02T15:56:33.337Z,62.91
2024-03-02T15:58:59.911Z,62.65
2024-03-02T16:01:28.699Z,62.06
2024-03-02T16:03:57.256Z,62.63
2024-03-02T16:06:23.996Z,62.92
2024-03-02T16:08:50.585Z,61.74
2024-03-02T16:11:17.647Z,61.61
2024-03-02T16:13:44.161Z,61.89
2024-03-02T16:16:10.743Z,62.54
2024-03-02T16:18:37.350Z,64.07
2024-03-02T16:21:03.838Z,63.42
2024-03-02T16:23:30.751Z,62.69
2024-03-02T16:25:57.926Z,64.80
2024-03-02T16:28:25.788Z,65.35
2024-03-02T16:30:52.687Z,65.03
2024-03-02T16:33:19.356Z,63.83
2024-03-02T16:35:45.859Z,63.60
2024-03-02T16:38:13.129Z,63.60
2024-03-02T16:40:39.754Z,63.57
2024-03-02T16:43:06.473Z,63.48
2024-03-02T16:45:33.458Z,63.01
2024-03-02T16:48:00.974Z,62.73
2024-03-02T16:50:27.514Z,62.14
2024-03-02T16:52:54.346Z,61.59
2024-03-02T16:55:21.407Z,61.83
2024-03-02T16:57:48.270Z,62.34
2024-03-02T17:00:15.360Z,61.70
2024-03-02T17:02:41.905Z,62.40
2024-03-02T17:05:09.569Z,61.98
2024-03-02T17:07:40.515Z,62.26
2024-03-02T17:10:09.173Z,63.11
2024-03-02T17:12:35.991Z,63.10
2024-03-02T17:15:02.739Z,65.40
2024-03-02T17:17:29.612Z,64.70
2024-03-02T17:19:56.463Z,64.23
2024-03-02T17:22:23.325Z,63.44
2024-03-02T17:24:50.643Z,63.23
2024-03-02T17:27:17.335Z,62.47
2024-03-02T17:29:44.062Z,61.92
2024-03-02T17:32:10.927Z,61.77
2024-03-02T17:34:37.649Z,62.04
2024-03-02T17:37:04.469Z,62.64
2024-03-02T17:39:31.221Z,63.13
2024-03-02T17:41:57.684Z,63.33
2024-03-02T17:44:24.533Z,63.07
2024-03-02T17:46:51.403Z,62.58
2024-03-02T17:49:20.693Z,62.86
2024-03-02T17:51:47.584Z,62.90
2024-03-02T17:54:14.174Z,66.23
2024-03-02T17:56:40.729Z,67.30
2024-03-02T17:59:08.455Z,63.36
2024-03-02T18:01:34.872Z,63.00
2024-03-02T18:04:01.450Z,63.73
2024-03-02T18:06:28.875Z,63.50
2024-03-02T18:08:55.609Z,63.87
2024-03-02T18:11:22.852Z,62.59
2024-03-02T18:13:49.533Z,62.62
2024-03-02T18:16:16.420Z,62.14
2024-03-02T18:18:43.236Z,61.96
2024-03-02T18:21:09.835Z,61.95
2024-03-02T18:23:36.289Z,61.91
2024-03-02T18:26:03.200Z,62.81
2024-03-02T18:28:30.854Z,62.42
2024-03-02T18:30:57.448Z,63.20
2024-03-02T18:33:23.942Z,62.59
2024-03-02T18:35:50.492Z,62.38
2024-03-02T18:38:16.979Z,62.54
2024-03-02T18:40:43.455Z,62.59
2024-03-02T18:43:09.968Z,62.89
2024-03-02T18:45:36.569Z,63.14
2024-03-02T18:48:03.804Z,63.20
2024-03-02T18:50:31.988Z,63.13
2024-03-02T18:52:58.614Z,62.61
2024-03-02T18:55:25.411Z,62.94
2024-03-02T18:57:56.715Z,62.14
2024-03-02T19:00:23.641Z,62.05
2024-03-02T19:02:50.241Z,62.21
2024-03-02T19:05:16.966Z,61.91
2024-03-02T19:07:46.049Z,62.52
2024-03-02T19:10:12.685Z,61.96
2024-03-02T19:12:42.212Z,63.34
2024-03-02T19:15:11.876Z,63.89
2024-03-02T19:17:39.269Z,67.40
2024-03-02T19:25:45.359Z,65.80
2024-03-02T19:28:12.845Z,63.10
2024-03-02T19:30:40.928Z,62.30
2024-03-02T19:33:19.050Z,61.77
2024-03-02T19:35:45.634Z,62.07
2024-03-02T19:38:12.649Z,59.71
2024-03-02T19:40:39.405Z,58.76
2024-03-02T19:43:06.694Z,59.00
2024-03-02T19:45:34.627Z,59.36
2024-03-02T19:48:01.288Z,59.27
2024-03-02T19:50:29.513Z,60.62
2024-03-02T19:52:56.095Z,59.92
2024-03-02T19:55:22.993Z,60.51
2024-03-02T19:57:49.811Z,61.58
2024-03-02T20:00:16.550Z,61.13
2024-03-02T20:02:43.691Z,63.02
2024-03-02T20:05:10.622Z,62.61
2024-03-02T20:07:37.524Z,62.09
2024-03-02T20:10:04.142Z,62.14
2024-03-02T20:12:30.739Z,62.11
2024-03-02T20:15:05.176Z,62.42
2024-03-02T20:17:31.929Z,62.29
2024-03-02T20:19:58.966Z,62.31
2024-03-02T20:22:26.017Z,62.11
2024-03-02T20:24:52.960Z,62.29
2024-03-02T20:27:21.413Z,61.73
2024-03-02T20:29:48.338Z,61.58
2024-03-02T20:32:15.102Z,61.37
2024-03-02T20:34:43.172Z,61.89
2024-03-02T20:37:10.458Z,61.08
2024-03-02T20:39:37.051Z,61.52
2024-03-02T20:42:05.566Z,61.62
2024-03-02T20:44:34.687Z,62.50
2024-03-02T20:47:01.429Z,62.34
2024-03-02T20:49:29.087Z,62.57
2024-03-02T20:51:56.428Z,62.91
2024-03-02T20:54:23.819Z,62.87
2024-03-02T20:56:50.942Z,62.50
2024-03-02T20:59:17.754Z,61.95
2024-03-02T21:01:46.445Z,61.87
2024-03-02T21:04:14.530Z,61.80
2024-03-02T21:06:41.295Z,61.28
2024-03-02T21:09:07.996Z,62.34
2024-03-02T21:11:35.407Z,63.32
2024-03-02T21:14:02.063Z,63.40
2024-03-02T21:16:29.486Z,62.83
2024-03-02T21:21:47.470Z,63.92
2024-03-02T21:24:14.935Z,63.72
2024-03-02T21:26:41.690Z,63.63
2024-03-02T21:29:08.746Z,63.48
2024-03-02T21:31:35.672Z,63.63
2024-03-02T21:34:02.236Z,64.13
2024-03-02T21:36:28.900Z,63.53
2024-03-02T21:38:56.093Z,62.88
2024-03-02T21:41:22.851Z,62.51
2024-03-02T21:43:50.320Z,62.34
2024-03-02T21:46:16.875Z,61.68
2024-03-02T21:48:43.596Z,61.75
2024-03-02T21:51:10.619Z,61.78
2024-03-02T21:53:37.961Z,61.98
2024-03-02T21:56:05.852Z,61.86
2024-03-02T21:58:32.830Z,61.67
2024-03-02T22:00:59.389Z,62.33
2024-03-02T22:03:26.002Z,62.26
2024-03-02T22:05:53.002Z,61.98
2024-03-02T22:08:19.761Z,61.28
2024-03-02T22:10:46.377Z,61.22
2024-03-02T22:13:13.036Z,61.72
2024-03-02T22:15:40.352Z,61.85
2024-03-02T22:18:07.779Z,61.59
2024-03-02T22:20:37.492Z,62.63
2024-03-02T22:23:05.818Z,62.69
2024-03-02T22:25:32.302Z,61.99
2024-03-02T22:27:59.360Z,62.91
2024-03-02T22:30:25.830Z,62.60
2024-03-02T22:32:52.497Z,62.40
2024-03-02T22:35:22.479Z,62.25
2024-03-02T22:37:51.499Z,62.86
2024-03-02T22:40:18.093Z,63.29
2024-03-02T22:45:37.482Z,63.13
2024-03-02T22:48:04.774Z,63.17
2024-03-02T22:50:31.397Z,63.19
2024-03-02T22:53:00.368Z,62.54
2024-03-02T22:55:27.112Z,62.42
2024-03-02T22:57:54.140Z,62.19
2024-03-02T23:00:22.858Z,62.61
2024-03-02T23:02:49.506Z,62.06
2024-03-02T23:05:16.412Z,62.02
2024-03-02T23:07:43.001Z,62.18
2024-03-02T23:10:11.298Z,61.82
2024-03-02T23:12:38.517Z,61.67
2024-03-02T23:15:05.022Z,61.79
2024-03-02T23:17:32.212Z,62.19
2024-03-02T23:19:58.746Z,62.85
2024-03-02T23:22:26.310Z,62.20
2024-03-02T23:24:52.966Z,61.59
2024-03-02T23:27:19.999Z,61.93
2024-03-02T23:29:46.767Z,62.17
2024-03-02T23:32:13.861Z,62.99
2024-03-02T23:34:40.938Z,63.89
2024-03-02T23:37:07.834Z,63.76
2024-03-02T23:39:34.970Z,63.25
2024-03-02T23:42:01.697Z,62.70
2024-03-02T23:44:28.304Z,63.56
2024-03-02T23:46:54.794Z,65.42
2024-03-02T23:49:21.457Z,64.66
2024-03-02T23:51:48.131Z,63.33
2024-03-02T23:54:15.243Z,63.39
2024-03-02T23:56:41.839Z,63.67
2024-03-02T23:59:10.334Z,63.65
